sensor_id;sensor_type;location;lat;lon;timestamp;P1;durP1;ratioP1;P2;durP2;ratioP2
57567;SDS011;43403;51.948;5.922;2022-11-20T00:00:46;15.60;;;9.13;;
57567;SDS011;43403;51.948;5.922;2022-11-20T00:03:12;17.35;;;9.20;;
57567;SDS011;43403;51.948;5.922;2022-11-20T00:05:39;13.93;;;8.98;;
57567;SDS011;43403;51.948;5.922;2022-11-20T00:08:05;15.45;;;9.05;;
57567;SDS011;43403;51.948;5.922;2022-11-20T00:10:32;15.95;;;9.10;;
57567;SDS011;43403;51.948;5.922;2022-11-20T00:12:58;13.77;;;8.85;;
57567;SDS011;43403;51.948;5.922;2022-11-20T00:15:24;16.02;;;8.90;;
57567;SDS011;43403;51.948;5.922;2022-11-20T00:17:51;16.95;;;9.45;;
57567;SDS011;43403;51.948;5.922;2022-11-20T00:20:17;14.18;;;8.55;;
57567;SDS011;43403;51.948;5.922;2022-11-20T00:22:43;17.50;;;8.75;;
57567;SDS011;43403;51.948;5.922;2022-11-20T00:25:10;14.70;;;9.65;;
57567;SDS011;43403;51.948;5.922;2022-11-20T00:27:37;16.35;;;10.05;;
57567;SDS011;43403;51.948;5.922;2022-11-20T00:30:04;15.20;;;9.95;;
57567;SDS011;43403;51.948;5.922;2022-11-20T00:32:31;17.85;;;9.13;;
57567;SDS011;43403;51.948;5.922;2022-11-20T00:34:57;15.88;;;10.52;;
57567;SDS011;43403;51.948;5.922;2022-11-20T00:37:23;17.08;;;9.13;;
57567;SDS011;43403;51.948;5.922;2022-11-20T00:39:50;18.17;;;10.20;;
57567;SDS011;43403;51.948;5.922;2022-11-20T00:42:16;16.77;;;10.10;;
57567;SDS011;43403;51.948;5.922;2022-11-20T00:44:42;16.02;;;10.23;;
57567;SDS011;43403;51.948;5.922;2022-11-20T00:47:09;18.30;;;10.23;;
57567;SDS011;43403;51.948;5.922;2022-11-20T00:49:35;20.00;;;10.10;;
57567;SDS011;43403;51.948;5.922;2022-11-20T00:52:02;17.10;;;9.48;;
57567;SDS011;43403;51.948;5.922;2022-11-20T00:54:28;18.25;;;9.85;;
57567;SDS011;43403;51.948;5.922;2022-11-20T00:56:54;16.10;;;9.60;;
57567;SDS011;43403;51.948;5.922;2022-11-20T00:59:21;16.35;;;9.32;;
57567;SDS011;43403;51.948;5.922;2022-11-20T01:01:48;16.85;;;9.75;;
57567;SDS011;43403;51.948;5.922;2022-11-20T01:04:14;14.35;;;8.60;;
57567;SDS011;43403;51.948;5.922;2022-11-20T01:06:41;15.23;;;9.05;;
57567;SDS011;43403;51.948;5.922;2022-11-20T01:09:11;16.33;;;9.38;;
57567;SDS011;43403;51.948;5.922;2022-11-20T01:11:40;17.95;;;9.93;;
57567;SDS011;43403;51.948;5.922;2022-11-20T01:14:13;17.15;;;9.02;;
57567;SDS011;43403;51.948;5.922;2022-11-20T01:16:43;15.90;;;9.10;;
57567;SDS011;43403;51.948;5.922;2022-11-20T01:19:13;14.00;;;9.02;;
57567;SDS011;43403;51.948;5.922;2022-11-20T01:21:43;14.00;;;8.32;;
57567;SDS011;43403;51.948;5.922;2022-11-20T01:24:12;16.50;;;9.65;;
57567;SDS011;43403;51.948;5.922;2022-11-20T01:26:40;15.13;;;9.05;;
57567;SDS011;43403;51.948;5.922;2022-11-20T01:29:11;16.38;;;8.88;;
57567;SDS011;43403;51.948;5.922;2022-11-20T01:31:41;15.15;;;9.20;;
57567;SDS011;43403;51.948;5.922;2022-11-20T01:34:14;16.40;;;9.23;;
57567;SDS011;43403;51.948;5.922;2022-11-20T01:36:45;14.35;;;8.75;;
57567;SDS011;43403;51.948;5.922;2022-11-20T01:39:13;16.00;;;9.35;;
57567;SDS011;43403;51.948;5.922;2022-11-20T01:41:42;15.18;;;9.27;;
57567;SDS011;43403;51.948;5.922;2022-11-20T01:47:34;15.60;;;9.10;;
57567;SDS011;43403;51.948;5.922;2022-11-20T01:52:39;15.57;;;9.50;;
57567;SDS011;43403;51.948;5.922;2022-11-20T01:55:10;16.27;;;8.70;;
57567;SDS011;43403;51.948;5.922;2022-11-20T01:57:40;14.43;;;9.20;;
57567;SDS011;43403;51.948;5.922;2022-11-20T02:00:09;16.42;;;9.13;;
57567;SDS011;43403;51.948;5.922;2022-11-20T02:02:43;17.45;;;9.18;;
57567;SDS011;43403;51.948;5.922;2022-11-20T02:07:58;14.60;;;8.35;;
57567;SDS011;43403;51.948;5.922;2022-11-20T02:10:25;15.73;;;8.77;;
57567;SDS011;43403;51.948;5.922;2022-11-20T02:12:54;15.68;;;9.05;;
57567;SDS011;43403;51.948;5.922;2022-11-20T02:15:39;15.27;;;8.30;;
57567;SDS011;43403;51.948;5.922;2022-11-20T02:18:06;16.40;;;9.10;;
57567;SDS011;43403;51.948;5.922;2022-11-20T02:20:33;15.93;;;9.07;;
57567;SDS011;43403;51.948;5.922;2022-11-20T02:25:43;16.55;;;8.88;;
57567;SDS011;43403;51.948;5.922;2022-11-20T02:28:11;14.43;;;8.88;;
57567;SDS011;43403;51.948;5.922;2022-11-20T02:30:37;14.90;;;8.00;;
57567;SDS011;43403;51.948;5.922;2022-11-20T02:33:03;15.20;;;8.93;;
57567;SDS011;43403;51.948;5.922;2022-11-20T02:37:57;14.68;;;8.52;;
57567;SDS011;43403;51.948;5.922;2022-11-20T02:40:26;13.75;;;7.97;;
57567;SDS011;43403;51.948;5.922;2022-11-20T02:42:53;14.73;;;8.30;;
57567;SDS011;43403;51.948;5.922;2022-11-20T02:45:21;13.68;;;7.88;;
57567;SDS011;43403;51.948;5.922;2022-11-20T02:47:48;15.88;;;9.25;;
57567;SDS011;43403;51.948;5.922;2022-11-20T02:50:15;17.45;;;9.55;;
57567;SDS011;43403;51.948;5.922;2022-11-20T02:52:42;13.95;;;7.80;;
57567;SDS011;43403;51.948;5.922;2022-11-20T02:55:08;15.55;;;8.95;;
57567;SDS011;43403;51.948;5.922;2022-11-20T02:57:35;15.65;;;8.95;;
57567;SDS011;43403;51.948;5.922;2022-11-20T03:00:02;13.90;;;8.65;;
57567;SDS011;43403;51.948;5.922;2022-11-20T03:02:30;14.02;;;7.88;;
57567;SDS011;43403;51.948;5.922;2022-11-20T03:04:57;14.57;;;8.55;;
57567;SDS011;43403;51.948;5.922;2022-11-20T03:07:24;14.43;;;8.20;;
57567;SDS011;43403;51.948;5.922;2022-11-20T03:09:51;18.42;;;8.32;;
57567;SDS011;43403;51.948;5.922;2022-11-20T03:12:17;14.43;;;9.02;;
57567;SDS011;43403;51.948;5.922;2022-11-20T03:14:43;13.27;;;7.38;;
57567;SDS011;43403;51.948;5.922;2022-11-20T03:17:16;13.52;;;8.25;;
57567;SDS011;43403;51.948;5.922;2022-11-20T03:19:43;12.98;;;8.05;;
57567;SDS011;43403;51.948;5.922;2022-11-20T03:22:09;13.23;;;7.80;;
57567;SDS011;43403;51.948;5.922;2022-11-20T03:24:35;16.83;;;8.15;;
57567;SDS011;43403;51.948;5.922;2022-11-20T03:27:02;15.23;;;8.32;;
57567;SDS011;43403;51.948;5.922;2022-11-20T03:29:28;13.07;;;7.70;;
57567;SDS011;43403;51.948;5.922;2022-11-20T03:31:55;14.18;;;7.90;;
57567;SDS011;43403;51.948;5.922;2022-11-20T03:34:21;14.90;;;8.18;;
57567;SDS011;43403;51.948;5.922;2022-11-20T03:36:47;14.25;;;8.18;;
57567;SDS011;43403;51.948;5.922;2022-11-20T03:39:14;13.75;;;8.00;;
57567;SDS011;43403;51.948;5.922;2022-11-20T03:41:41;14.43;;;8.52;;
57567;SDS011;43403;51.948;5.922;2022-11-20T03:44:10;16.48;;;8.73;;
57567;SDS011;43403;51.948;5.922;2022-11-20T03:46:37;18.23;;;8.05;;
57567;SDS011;43403;51.948;5.922;2022-11-20T03:49:04;15.07;;;9.15;;
57567;SDS011;43403;51.948;5.922;2022-11-20T03:51:31;15.52;;;8.40;;
57567;SDS011;43403;51.948;5.922;2022-11-20T03:54:01;13.93;;;8.38;;
57567;SDS011;43403;51.948;5.922;2022-11-20T03:56:30;15.25;;;9.05;;
57567;SDS011;43403;51.948;5.922;2022-11-20T03:58:58;18.52;;;9.32;;
57567;SDS011;43403;51.948;5.922;2022-11-20T04:01:25;15.02;;;8.63;;
57567;SDS011;43403;51.948;5.922;2022-11-20T04:03:54;13.25;;;8.13;;
57567;SDS011;43403;51.948;5.922;2022-11-20T04:06:26;13.27;;;7.72;;
57567;SDS011;43403;51.948;5.922;2022-11-20T04:08:57;15.07;;;7.78;;
57567;SDS011;43403;51.948;5.922;2022-11-20T04:11:26;14.30;;;7.93;;
57567;SDS011;43403;51.948;5.922;2022-11-20T04:13:58;16.45;;;8.70;;
57567;SDS011;43403;51.948;5.922;2022-11-20T04:16:28;12.88;;;7.25;;
57567;SDS011;43403;51.948;5.922;2022-11-20T04:18:56;13.02;;;7.68;;
57567;SDS011;43403;51.948;5.922;2022-11-20T04:21:24;14.90;;;8.10;;
57567;SDS011;43403;51.948;5.922;2022-11-20T04:23:51;13.07;;;8.68;;
57567;SDS011;43403;51.948;5.922;2022-11-20T04:26:19;15.48;;;8.02;;
57567;SDS011;43403;51.948;5.922;2022-11-20T04:28:46;14.20;;;8.87;;
57567;SDS011;43403;51.948;5.922;2022-11-20T04:31:14;17.77;;;9.23;;
57567;SDS011;43403;51.948;5.922;2022-11-20T04:33:43;14.43;;;8.98;;
57567;SDS011;43403;51.948;5.922;2022-11-20T04:36:11;14.57;;;7.88;;
57567;SDS011;43403;51.948;5.922;2022-11-20T04:38:45;14.52;;;8.30;;
57567;SDS011;43403;51.948;5.922;2022-11-20T04:41:18;14.98;;;8.77;;
57567;SDS011;43403;51.948;5.922;2022-11-20T04:43:50;16.40;;;7.93;;
57567;SDS011;43403;51.948;5.922;2022-11-20T04:46:18;13.40;;;7.97;;
57567;SDS011;43403;51.948;5.922;2022-11-20T04:48:46;14.18;;;8.27;;
57567;SDS011;43403;51.948;5.922;2022-11-20T04:51:13;14.00;;;8.48;;
57567;SDS011;43403;51.948;5.922;2022-11-20T04:53:40;13.75;;;8.35;;
57567;SDS011;43403;51.948;5.922;2022-11-20T04:56:06;13.25;;;7.80;;
57567;SDS011;43403;51.948;5.922;2022-11-20T04:58:34;12.63;;;8.23;;
57567;SDS011;43403;51.948;5.922;2022-11-20T05:01:02;16.55;;;8.55;;
57567;SDS011;43403;51.948;5.922;2022-11-20T05:03:30;17.25;;;8.73;;
57567;SDS011;43403;51.948;5.922;2022-11-20T05:05:59;14.20;;;8.38;;
57567;SDS011;43403;51.948;5.922;2022-11-20T05:08:27;14.05;;;8.38;;
57567;SDS011;43403;51.948;5.922;2022-11-20T05:10:59;16.73;;;8.60;;
57567;SDS011;43403;51.948;5.922;2022-11-20T05:13:29;15.02;;;8.38;;
57567;SDS011;43403;51.948;5.922;2022-11-20T05:16:00;15.75;;;9.13;;
57567;SDS011;43403;51.948;5.922;2022-11-20T05:18:27;15.30;;;8.57;;
57567;SDS011;43403;51.948;5.922;2022-11-20T05:20:54;13.27;;;8.10;;
57567;SDS011;43403;51.948;5.922;2022-11-20T05:23:24;16.80;;;8.68;;
57567;SDS011;43403;51.948;5.922;2022-11-20T05:25:53;15.18;;;8.30;;
57567;SDS011;43403;51.948;5.922;2022-11-20T05:28:24;12.50;;;8.10;;
57567;SDS011;43403;51.948;5.922;2022-11-20T05:30:52;13.10;;;7.85;;
57567;SDS011;43403;51.948;5.922;2022-11-20T05:33:18;13.18;;;8.00;;
57567;SDS011;43403;51.948;5.922;2022-11-20T05:35:45;15.43;;;7.55;;
57567;SDS011;43403;51.948;5.922;2022-11-20T05:38:12;15.00;;;9.15;;
57567;SDS011;43403;51.948;5.922;2022-11-20T05:40:38;15.93;;;8.73;;
57567;SDS011;43403;51.948;5.922;2022-11-20T05:43:04;14.48;;;8.93;;
57567;SDS011;43403;51.948;5.922;2022-11-20T05:45:31;18.17;;;9.07;;
57567;SDS011;43403;51.948;5.922;2022-11-20T05:47:58;15.23;;;8.52;;
57567;SDS011;43403;51.948;5.922;2022-11-20T05:50:28;16.67;;;7.90;;
57567;SDS011;43403;51.948;5.922;2022-11-20T05:52:54;14.07;;;8.32;;
57567;SDS011;43403;51.948;5.922;2022-11-20T05:55:23;15.95;;;9.52;;
57567;SDS011;43403;51.948;5.922;2022-11-20T05:57:49;15.88;;;9.48;;
57567;SDS011;43403;51.948;5.922;2022-11-20T06:00:16;15.20;;;9.02;;
57567;SDS011;43403;51.948;5.922;2022-11-20T06:02:43;17.10;;;9.45;;
57567;SDS011;43403;51.948;5.922;2022-11-20T06:05:09;14.73;;;8.50;;
57567;SDS011;43403;51.948;5.922;2022-11-20T06:07:36;16.05;;;8.93;;
57567;SDS011;43403;51.948;5.922;2022-11-20T06:10:02;16.20;;;9.50;;
57567;SDS011;43403;51.948;5.922;2022-11-20T06:12:30;16.95;;;9.27;;
57567;SDS011;43403;51.948;5.922;2022-11-20T06:14:57;17.35;;;10.45;;
57567;SDS011;43403;51.948;5.922;2022-11-20T06:17:24;16.27;;;9.13;;
57567;SDS011;43403;51.948;5.922;2022-11-20T06:19:50;17.13;;;9.35;;
57567;SDS011;43403;51.948;5.922;2022-11-20T06:22:17;16.13;;;9.23;;
57567;SDS011;43403;51.948;5.922;2022-11-20T06:24:43;15.07;;;9.27;;
57567;SDS011;43403;51.948;5.922;2022-11-20T06:27:09;15.63;;;9.23;;
57567;SDS011;43403;51.948;5.922;2022-11-20T06:29:36;15.10;;;9.20;;
57567;SDS011;43403;51.948;5.922;2022-11-20T06:32:02;16.17;;;9.18;;
57567;SDS011;43403;51.948;5.922;2022-11-20T06:34:29;16.52;;;9.63;;
57567;SDS011;43403;51.948;5.922;2022-11-20T06:36:55;16.50;;;9.35;;
57567;SDS011;43403;51.948;5.922;2022-11-20T06:39:22;17.77;;;9.15;;
57567;SDS011;43403;51.948;5.922;2022-11-20T06:41:49;16.75;;;9.75;;
57567;SDS011;43403;51.948;5.922;2022-11-20T06:44:22;15.85;;;9.35;;
57567;SDS011;43403;51.948;5.922;2022-11-20T06:46:48;17.25;;;10.00;;
57567;SDS011;43403;51.948;5.922;2022-11-20T06:49:15;17.05;;;9.98;;
57567;SDS011;43403;51.948;5.922;2022-11-20T06:51:41;16.85;;;9.38;;
57567;SDS011;43403;51.948;5.922;2022-11-20T06:54:07;18.17;;;8.82;;
57567;SDS011;43403;51.948;5.922;2022-11-20T06:56:34;18.13;;;9.75;;
57567;SDS011;43403;51.948;5.922;2022-11-20T06:59:03;16.15;;;9.48;;
57567;SDS011;43403;51.948;5.922;2022-11-20T07:01:31;14.30;;;8.90;;
57567;SDS011;43403;51.948;5.922;2022-11-20T07:03:58;18.27;;;9.88;;
57567;SDS011;43403;51.948;5.922;2022-11-20T07:06:24;14.57;;;9.80;;
57567;SDS011;43403;51.948;5.922;2022-11-20T07:08:51;17.58;;;9.25;;
57567;SDS011;43403;51.948;5.922;2022-11-20T07:11:18;16.75;;;9.30;;
57567;SDS011;43403;51.948;5.922;2022-11-20T07:13:45;15.05;;;9.07;;
57567;SDS011;43403;51.948;5.922;2022-11-20T07:16:11;14.63;;;9.40;;
57567;SDS011;43403;51.948;5.922;2022-11-20T07:18:38;20.40;;;9.93;;
57567;SDS011;43403;51.948;5.922;2022-11-20T07:21:05;14.75;;;9.15;;
57567;SDS011;43403;51.948;5.922;2022-11-20T07:23:33;15.68;;;9.73;;
57567;SDS011;43403;51.948;5.922;2022-11-20T07:26:07;15.82;;;9.05;;
57567;SDS011;43403;51.948;5.922;2022-11-20T07:28:34;15.52;;;9.70;;
57567;SDS011;43403;51.948;5.922;2022-11-20T07:31:01;18.40;;;10.02;;
57567;SDS011;43403;51.948;5.922;2022-11-20T07:33:28;18.35;;;9.77;;
57567;SDS011;43403;51.948;5.922;2022-11-20T07:35:55;19.17;;;10.07;;
57567;SDS011;43403;51.948;5.922;2022-11-20T07:38:21;14.63;;;9.70;;
57567;SDS011;43403;51.948;5.922;2022-11-20T07:40:47;15.90;;;9.60;;
57567;SDS011;43403;51.948;5.922;2022-11-20T07:43:15;17.83;;;9.95;;
57567;SDS011;43403;51.948;5.922;2022-11-20T07:45:41;17.85;;;9.98;;
57567;SDS011;43403;51.948;5.922;2022-11-20T07:48:07;20.95;;;10.77;;
57567;SDS011;43403;51.948;5.922;2022-11-20T07:50:34;16.13;;;9.40;;
57567;SDS011;43403;51.948;5.922;2022-11-20T07:53:04;19.45;;;10.85;;
57567;SDS011;43403;51.948;5.922;2022-11-20T07:55:31;19.92;;;10.77;;
57567;SDS011;43403;51.948;5.922;2022-11-20T07:57:58;19.08;;;11.35;;
57567;SDS011;43403;51.948;5.922;2022-11-20T08:00:25;17.65;;;10.82;;
57567;SDS011;43403;51.948;5.922;2022-11-20T08:02:52;22.88;;;11.75;;
57567;SDS011;43403;51.948;5.922;2022-11-20T08:05:19;20.67;;;11.93;;
57567;SDS011;43403;51.948;5.922;2022-11-20T08:07:46;24.88;;;11.88;;
57567;SDS011;43403;51.948;5.922;2022-11-20T08:10:13;21.30;;;11.75;;
57567;SDS011;43403;51.948;5.922;2022-11-20T08:12:45;18.95;;;11.32;;
57567;SDS011;43403;51.948;5.922;2022-11-20T08:15:32;20.73;;;11.77;;
57567;SDS011;43403;51.948;5.922;2022-11-20T08:17:59;19.40;;;11.48;;
57567;SDS011;43403;51.948;5.922;2022-11-20T08:20:49;20.92;;;11.65;;
57567;SDS011;43403;51.948;5.922;2022-11-20T08:23:16;22.73;;;12.18;;
57567;SDS011;43403;51.948;5.922;2022-11-20T08:25:42;19.75;;;11.85;;
57567;SDS011;43403;51.948;5.922;2022-11-20T08:28:09;22.40;;;13.75;;
57567;SDS011;43403;51.948;5.922;2022-11-20T08:30:45;25.17;;;12.57;;
57567;SDS011;43403;51.948;5.922;2022-11-20T08:33:12;24.50;;;12.68;;
57567;SDS011;43403;51.948;5.922;2022-11-20T08:35:38;21.65;;;12.63;;
57567;SDS011;43403;51.948;5.922;2022-11-20T08:38:05;19.55;;;11.98;;
57567;SDS011;43403;51.948;5.922;2022-11-20T08:40:32;21.95;;;12.82;;
57567;SDS011;43403;51.948;5.922;2022-11-20T08:42:59;22.13;;;12.50;;
57567;SDS011;43403;51.948;5.922;2022-11-20T08:45:25;23.08;;;12.77;;
57567;SDS011;43403;51.948;5.922;2022-11-20T08:48:02;19.92;;;12.18;;
57567;SDS011;43403;51.948;5.922;2022-11-20T08:50:29;24.15;;;12.70;;
57567;SDS011;43403;51.948;5.922;2022-11-20T08:53:02;22.25;;;12.73;;
57567;SDS011;43403;51.948;5.922;2022-11-20T08:55:31;23.30;;;13.32;;
57567;SDS011;43403;51.948;5.922;2022-11-20T08:57:58;22.70;;;13.40;;
57567;SDS011;43403;51.948;5.922;2022-11-20T09:00:24;21.73;;;13.00;;
57567;SDS011;43403;51.948;5.922;2022-11-20T09:02:51;20.10;;;13.05;;
57567;SDS011;43403;51.948;5.922;2022-11-20T09:05:18;22.88;;;13.25;;
57567;SDS011;43403;51.948;5.922;2022-11-20T09:07:44;24.63;;;13.57;;
57567;SDS011;43403;51.948;5.922;2022-11-20T09:10:11;27.48;;;14.68;;
57567;SDS011;43403;51.948;5.922;2022-11-20T09:12:53;24.60;;;13.80;;
57567;SDS011;43403;51.948;5.922;2022-11-20T09:15:21;23.50;;;12.68;;
57567;SDS011;43403;51.948;5.922;2022-11-20T09:17:55;24.30;;;13.95;;
57567;SDS011;43403;51.948;5.922;2022-11-20T09:20:23;22.90;;;13.77;;
57567;SDS011;43403;51.948;5.922;2022-11-20T09:22:49;25.88;;;14.35;;
57567;SDS011;43403;51.948;5.922;2022-11-20T09:25:16;27.17;;;14.10;;
57567;SDS011;43403;51.948;5.922;2022-11-20T09:27:43;21.95;;;12.95;;
57567;SDS011;43403;51.948;5.922;2022-11-20T09:30:12;25.80;;;14.68;;
57567;SDS011;43403;51.948;5.922;2022-11-20T09:32:39;24.30;;;14.40;;
57567;SDS011;43403;51.948;5.922;2022-11-20T09:35:06;27.85;;;14.57;;
57567;SDS011;43403;51.948;5.922;2022-11-20T09:37:33;26.20;;;14.60;;
57567;SDS011;43403;51.948;5.922;2022-11-20T09:39:59;22.58;;;14.15;;
57567;SDS011;43403;51.948;5.922;2022-11-20T09:45:06;21.67;;;12.30;;
57567;SDS011;43403;51.948;5.922;2022-11-20T09:51:44;22.48;;;14.60;;
57567;SDS011;43403;51.948;5.922;2022-11-20T09:56:56;25.70;;;15.05;;
57567;SDS011;43403;51.948;5.922;2022-11-20T10:02:00;26.23;;;14.45;;
57567;SDS011;43403;51.948;5.922;2022-11-20T10:09:58;36.55;;;15.52;;
57567;SDS011;43403;51.948;5.922;2022-11-20T10:18:51;23.83;;;15.82;;
57567;SDS011;43403;51.948;5.922;2022-11-20T10:26:43;25.88;;;14.65;;
57567;SDS011;43403;51.948;5.922;2022-11-20T10:29:32;23.70;;;15.27;;
57567;SDS011;43403;51.948;5.922;2022-11-20T10:32:02;21.38;;;14.40;;
57567;SDS011;43403;51.948;5.922;2022-11-20T10:37:05;29.23;;;17.30;;
57567;SDS011;43403;51.948;5.922;2022-11-20T10:42:17;27.10;;;16.27;;
57567;SDS011;43403;51.948;5.922;2022-11-20T10:44:58;29.30;;;15.35;;
57567;SDS011;43403;51.948;5.922;2022-11-20T10:47:37;24.58;;;15.40;;
57567;SDS011;43403;51.948;5.922;2022-11-20T10:50:04;25.23;;;14.73;;
57567;SDS011;43403;51.948;5.922;2022-11-20T10:53:20;23.70;;;15.38;;
57567;SDS011;43403;51.948;5.922;2022-11-20T10:55:42;24.60;;;15.38;;
57567;SDS011;43403;51.948;5.922;2022-11-20T10:58:22;25.65;;;16.20;;
57567;SDS011;43403;51.948;5.922;2022-11-20T11:01:05;26.25;;;15.95;;
57567;SDS011;43403;51.948;5.922;2022-11-20T11:03:39;25.17;;;14.82;;
57567;SDS011;43403;51.948;5.922;2022-11-20T11:08:59;26.65;;;16.02;;
57567;SDS011;43403;51.948;5.922;2022-11-20T11:11:30;26.20;;;16.27;;
57567;SDS011;43403;51.948;5.922;2022-11-20T11:16:31;24.55;;;15.40;;
57567;SDS011;43403;51.948;5.922;2022-11-20T11:19:11;25.27;;;15.25;;
57567;SDS011;43403;51.948;5.922;2022-11-20T11:21:45;24.20;;;14.40;;
57567;SDS011;43403;51.948;5.922;2022-11-20T11:24:24;24.98;;;13.45;;
57567;SDS011;43403;51.948;5.922;2022-11-20T11:27:11;28.02;;;15.00;;
57567;SDS011;43403;51.948;5.922;2022-11-20T11:29:43;23.13;;;14.55;;
57567;SDS011;43403;51.948;5.922;2022-11-20T11:32:28;21.40;;;14.05;;
57567;SDS011;43403;51.948;5.922;2022-11-20T11:35:01;23.13;;;13.82;;
57567;SDS011;43403;51.948;5.922;2022-11-20T11:37:33;19.17;;;12.60;;
57567;SDS011;43403;51.948;5.922;2022-11-20T11:40:03;21.73;;;13.95;;
57567;SDS011;43403;51.948;5.922;2022-11-20T11:42:52;22.40;;;13.32;;
57567;SDS011;43403;51.948;5.922;2022-11-20T11:45:22;21.77;;;13.10;;
57567;SDS011;43403;51.948;5.922;2022-11-20T11:47:50;22.55;;;13.57;;
57567;SDS011;43403;51.948;5.922;2022-11-20T11:50:19;18.45;;;11.85;;
57567;SDS011;43403;51.948;5.922;2022-11-20T11:55:48;23.15;;;14.27;;
57567;SDS011;43403;51.948;5.922;2022-11-20T12:01:13;23.17;;;14.95;;
57567;SDS011;43403;51.948;5.922;2022-11-20T12:06:42;24.30;;;16.90;;
57567;SDS011;43403;51.948;5.922;2022-11-20T12:09:11;23.08;;;14.68;;
57567;SDS011;43403;51.948;5.922;2022-11-20T12:11:49;23.55;;;15.85;;
57567;SDS011;43403;51.948;5.922;2022-11-20T12:14:27;25.30;;;14.55;;
57567;SDS011;43403;51.948;5.922;2022-11-20T12:17:00;24.20;;;16.40;;
57567;SDS011;43403;51.948;5.922;2022-11-20T12:19:31;29.63;;;18.98;;
57567;SDS011;43403;51.948;5.922;2022-11-20T12:30:18;25.33;;;15.68;;
57567;SDS011;43403;51.948;5.922;2022-11-20T12:38:04;27.75;;;16.20;;
57567;SDS011;43403;51.948;5.922;2022-11-20T12:40:58;24.58;;;15.65;;
57567;SDS011;43403;51.948;5.922;2022-11-20T12:43:29;22.42;;;14.70;;
57567;SDS011;43403;51.948;5.922;2022-11-20T12:46:31;24.20;;;15.80;;
57567;SDS011;43403;51.948;5.922;2022-11-20T12:55:01;23.90;;;15.98;;
57567;SDS011;43403;51.948;5.922;2022-11-20T12:57:49;23.48;;;15.23;;
57567;SDS011;43403;51.948;5.922;2022-11-20T13:00:20;23.90;;;15.07;;
57567;SDS011;43403;51.948;5.922;2022-11-20T13:06:10;26.02;;;15.43;;
57567;SDS011;43403;51.948;5.922;2022-11-20T13:08:52;25.55;;;15.45;;
57567;SDS011;43403;51.948;5.922;2022-11-20T13:14:02;28.65;;;18.27;;
57567;SDS011;43403;51.948;5.922;2022-11-20T13:16:48;28.08;;;17.80;;
57567;SDS011;43403;51.948;5.922;2022-11-20T13:19:21;26.02;;;17.33;;
57567;SDS011;43403;51.948;5.922;2022-11-20T13:21:49;25.50;;;16.75;;
57567;SDS011;43403;51.948;5.922;2022-11-20T13:26:46;26.52;;;16.35;;
57567;SDS011;43403;51.948;5.922;2022-11-20T13:29:16;27.73;;;17.85;;
57567;SDS011;43403;51.948;5.922;2022-11-20T13:31:47;26.98;;;16.80;;
57567;SDS011;43403;51.948;5.922;2022-11-20T13:34:24;24.65;;;15.65;;
57567;SDS011;43403;51.948;5.922;2022-11-20T13:36:53;22.50;;;13.98;;
57567;SDS011;43403;51.948;5.922;2022-11-20T13:39:25;24.00;;;16.27;;
57567;SDS011;43403;51.948;5.922;2022-11-20T13:42:03;26.60;;;16.25;;
57567;SDS011;43403;51.948;5.922;2022-11-20T13:44:53;27.75;;;18.80;;
57567;SDS011;43403;51.948;5.922;2022-11-20T13:47:22;30.73;;;19.15;;
57567;SDS011;43403;51.948;5.922;2022-11-20T13:49:50;33.03;;;20.13;;
57567;SDS011;43403;51.948;5.922;2022-11-20T13:52:26;30.48;;;19.17;;
57567;SDS011;43403;51.948;5.922;2022-11-20T14:00:50;27.83;;;16.88;;
57567;SDS011;43403;51.948;5.922;2022-11-20T14:03:40;25.88;;;15.38;;
57567;SDS011;43403;51.948;5.922;2022-11-20T14:06:28;29.70;;;18.13;;
57567;SDS011;43403;51.948;5.922;2022-11-20T14:08:58;28.85;;;17.63;;
57567;SDS011;43403;51.948;5.922;2022-11-20T14:16:30;28.60;;;18.70;;
57567;SDS011;43403;51.948;5.922;2022-11-20T14:19:14;29.00;;;18.42;;
57567;SDS011;43403;51.948;5.922;2022-11-20T14:22:21;27.60;;;17.00;;
57567;SDS011;43403;51.948;5.922;2022-11-20T14:24:47;28.17;;;17.98;;
57567;SDS011;43403;51.948;5.922;2022-11-20T14:27:19;31.30;;;20.15;;
57567;SDS011;43403;51.948;5.922;2022-11-20T14:29:47;29.35;;;18.45;;
57567;SDS011;43403;51.948;5.922;2022-11-20T14:32:19;30.38;;;17.58;;
57567;SDS011;43403;51.948;5.922;2022-11-20T14:34:48;30.17;;;18.40;;
57567;SDS011;43403;51.948;5.922;2022-11-20T14:37:20;34.05;;;19.40;;
57567;SDS011;43403;51.948;5.922;2022-11-20T14:39:55;30.48;;;18.23;;
57567;SDS011;43403;51.948;5.922;2022-11-20T14:42:25;30.40;;;18.90;;
57567;SDS011;43403;51.948;5.922;2022-11-20T14:44:57;32.00;;;18.48;;
57567;SDS011;43403;51.948;5.922;2022-11-20T14:47:25;32.42;;;19.80;;
57567;SDS011;43403;51.948;5.922;2022-11-20T14:49:54;32.83;;;20.33;;
57567;SDS011;43403;51.948;5.922;2022-11-20T14:52:23;34.17;;;20.33;;
57567;SDS011;43403;51.948;5.922;2022-11-20T14:54:51;31.13;;;19.75;;
57567;SDS011;43403;51.948;5.922;2022-11-20T15:02:32;28.95;;;17.70;;
57567;SDS011;43403;51.948;5.922;2022-11-20T15:04:59;31.92;;;19.02;;
57567;SDS011;43403;51.948;5.922;2022-11-20T15:07:30;34.50;;;18.38;;
57567;SDS011;43403;51.948;5.922;2022-11-20T15:10:06;29.67;;;18.85;;
57567;SDS011;43403;51.948;5.922;2022-11-20T15:12:34;30.20;;;18.60;;
57567;SDS011;43403;51.948;5.922;2022-11-20T15:15:04;27.40;;;17.45;;
57567;SDS011;43403;51.948;5.922;2022-11-20T15:17:32;34.67;;;19.15;;
57567;SDS011;43403;51.948;5.922;2022-11-20T15:20:03;28.27;;;15.65;;
57567;SDS011;43403;51.948;5.922;2022-11-20T15:22:37;29.40;;;17.23;;
57567;SDS011;43403;51.948;5.922;2022-11-20T15:25:13;29.77;;;18.88;;
57567;SDS011;43403;51.948;5.922;2022-11-20T15:27:41;33.08;;;19.85;;
57567;SDS011;43403;51.948;5.922;2022-11-20T15:30:12;30.40;;;17.13;;
57567;SDS011;43403;51.948;5.922;2022-11-20T15:32:43;26.77;;;17.38;;
57567;SDS011;43403;51.948;5.922;2022-11-20T15:35:10;29.98;;;18.02;;
57567;SDS011;43403;51.948;5.922;2022-11-20T15:37:37;34.88;;;18.83;;
57567;SDS011;43403;51.948;5.922;2022-11-20T15:40:04;32.95;;;19.23;;
57567;SDS011;43403;51.948;5.922;2022-11-20T15:42:32;33.15;;;18.73;;
57567;SDS011;43403;51.948;5.922;2022-11-20T15:44:59;29.05;;;19.10;;
57567;SDS011;43403;51.948;5.922;2022-11-20T15:47:29;29.13;;;16.95;;
57567;SDS011;43403;51.948;5.922;2022-11-20T15:49:58;39.03;;;21.48;;
57567;SDS011;43403;51.948;5.922;2022-11-20T15:52:25;48.97;;;24.38;;
57567;SDS011;43403;51.948;5.922;2022-11-20T15:54:55;36.53;;;22.00;;
57567;SDS011;43403;51.948;5.922;2022-11-20T15:57:21;32.72;;;18.58;;
57567;SDS011;43403;51.948;5.922;2022-11-20T15:59:48;35.05;;;19.70;;
57567;SDS011;43403;51.948;5.922;2022-11-20T16:02:14;34.08;;;19.50;;
57567;SDS011;43403;51.948;5.922;2022-11-20T16:04:44;27.92;;;16.35;;
57567;SDS011;43403;51.948;5.922;2022-11-20T16:07:11;35.47;;;20.20;;
57567;SDS011;43403;51.948;5.922;2022-11-20T16:09:37;30.65;;;18.60;;
57567;SDS011;43403;51.948;5.922;2022-11-20T16:12:04;35.53;;;19.67;;
57567;SDS011;43403;51.948;5.922;2022-11-20T16:14:30;37.33;;;19.45;;
57567;SDS011;43403;51.948;5.922;2022-11-20T16:17:15;34.17;;;19.58;;
57567;SDS011;43403;51.948;5.922;2022-11-20T16:20:02;36.25;;;19.33;;
57567;SDS011;43403;51.948;5.922;2022-11-20T16:22:28;34.97;;;19.92;;
57567;SDS011;43403;51.948;5.922;2022-11-20T16:24:54;34.28;;;20.52;;
57567;SDS011;43403;51.948;5.922;2022-11-20T16:27:21;29.88;;;18.17;;
57567;SDS011;43403;51.948;5.922;2022-11-20T16:29:47;35.33;;;20.70;;